Vinton, California
Current Conditions -  °F | °C
As of 11:55 AM on Friday 19 Dec 2014 (Local Time) from KRTS Reporting Station
Scattered Clouds Scattered Clouds  
Wind Chill: 35°   Ceiling: Unl
Heat Index: 43°   Visibility: 10mi
Dew Point: 32°   Wind: 17mph
Humidity: 66%   Direction: 230°SW
Pressure: 30.11"   Gusts: 21mph
Location:  39.8°N, 120.18°W
Report Text: KRTS 191955Z AUTO 23015G18KT 10SM SCT035 06/00 A3011 RMK AO2
Loading
Personal Weather Stations






























Interactive Weather Map New forecast layout! Learn more

10-Day Weather Forecast

Advertisements
Track Severe Weather on mobile